Time;durP1;ratioP1;P1;durP2;ratioP2;P2;SDS_P1;SDS_P2;PMS_P1;PMS_P2;Temp;Humidity;BMP_temperature;BMP_pressure;BME280_temperature;BME280_humidity;BME280_pressure;Samples;Min_cycle;Max_cycle;Signal;HPM_P1;HPM_P2
2022/08/26 00:00:51;;;;;;;18.03;6.60;;;20.40;99.90;;;;;;5114662;28;20391;-70
2022/08/26 00:03:17;;;;;;;7.43;6.13;;;20.30;99.90;;;;;;5114535;28;20399;-75
2022/08/26 00:05:45;;;;;;;11.40;6.43;;;20.30;99.90;;;;;;5114880;28;20432;-70
2022/08/26 00:08:14;;;;;;;8.60;6.07;;;20.30;99.90;;;;;;5113860;28;20434;-75
2022/08/26 00:10:42;;;;;;;8.20;5.40;;;20.30;99.90;;;;;;5114618;28;20403;-75
2022/08/26 00:13:09;;;;;;;7.80;5.80;;;20.30;99.90;;;;;;5114697;28;20835;-75
2022/08/26 00:15:36;;;;;;;15.07;5.97;;;20.30;99.90;;;;;;5114480;28;20438;-70
2022/08/26 00:18:40;;;;;;;12.73;6.90;;;20.30;99.90;;;;;;5113173;28;20427;-74
2022/08/26 00:21:09;;;;;;;8.87;6.27;;;20.30;99.90;;;;;;5114588;28;20402;-75
2022/08/26 00:23:36;;;;;;;9.77;6.40;;;20.30;99.90;;;;;;5113898;28;20457;-70
2022/08/26 00:26:04;;;;;;;9.40;6.70;;;20.30;99.90;;;;;;5113198;28;20884;-74
2022/08/26 00:28:40;;;;;;;6.77;6.07;;;20.20;99.90;;;;;;5114265;28;20882;-75
2022/08/26 00:31:07;;;;;;;9.77;7.27;;;20.20;99.90;;;;;;5114093;28;20407;-75
2022/08/26 00:33:33;;;;;;;7.10;5.53;;;20.10;99.90;;;;;;5114828;28;20463;-70
2022/08/26 00:36:00;;;;;;;6.97;5.67;;;20.10;99.90;;;;;;5113790;28;20415;-73
2022/08/26 00:38:26;;;;;;;17.67;7.00;;;20.10;99.90;;;;;;5113805;28;20438;-70
2022/08/26 00:40:54;;;;;;;8.27;6.10;;;20.10;99.90;;;;;;5113456;28;20466;-75
2022/08/26 00:43:22;;;;;;;8.67;5.97;;;20.10;99.90;;;;;;5114041;28;20446;-70
2022/08/26 00:48:54;;;;;;;6.47;5.57;;;20.10;99.90;;;;;;5102980;28;20812;-70
2022/08/26 00:51:26;;;;;;;8.37;6.60;;;20.10;99.90;;;;;;5114109;28;20418;-75
2022/08/26 00:54:08;;;;;;;9.80;6.40;;;20.20;99.90;;;;;;5113903;28;20430;-75
2022/08/26 00:57:00;;;;;;;8.53;6.60;;;20.10;99.90;;;;;;5112253;28;20434;-75
2022/08/26 00:59:28;;;;;;;10.37;7.03;;;20.10;99.90;;;;;;5114012;28;20435;-70
2022/08/26 01:01:56;;;;;;;8.47;6.60;;;20.10;99.90;;;;;;5114748;28;20399;-70
2022/08/26 01:04:23;;;;;;;8.20;6.60;;;20.10;99.90;;;;;;5113617;28;20454;-75
2022/08/26 01:06:51;;;;;;;8.87;6.20;;;20.10;99.90;;;;;;5112832;28;20887;-69
2022/08/26 01:09:18;;;;;;;5.77;5.20;;;20.10;99.90;;;;;;5113678;28;20423;-75
2022/08/26 01:11:46;;;;;;;13.53;6.27;;;20.10;99.90;;;;;;5115398;28;20410;-75
2022/08/26 01:14:18;;;;;;;10.60;6.80;;;20.10;99.90;;;;;;5117623;28;20468;-74
2022/08/26 01:16:49;;;;;;;10.47;5.80;;;20.10;99.90;;;;;;5116612;28;20406;-74
2022/08/26 01:19:19;;;;;;;12.13;7.00;;;20.10;99.90;;;;;;5117858;28;20464;-70
2022/08/26 01:21:57;;;;;;;8.43;5.70;;;20.00;99.90;;;;;;5117723;28;20402;-75
2022/08/26 01:24:29;;;;;;;9.90;5.80;;;20.10;99.90;;;;;;5117546;28;20478;-71
2022/08/26 01:27:00;;;;;;;11.80;6.30;;;20.00;99.90;;;;;;5116834;28;20506;-70
2022/08/26 01:29:28;;;;;;;8.07;6.87;;;20.00;99.90;;;;;;5117404;28;20862;-70
2022/08/26 01:31:56;;;;;;;10.27;6.17;;;20.00;99.90;;;;;;5117878;28;20390;-75
2022/08/26 01:34:29;;;;;;;10.57;6.50;;;20.00;99.90;;;;;;5116983;28;20478;-75
2022/08/26 01:37:01;;;;;;;11.47;6.23;;;20.00;99.90;;;;;;5116913;28;20410;-70
2022/08/26 01:39:33;;;;;;;7.80;6.27;;;20.00;99.90;;;;;;5117904;28;20415;-75
2022/08/26 01:42:00;;;;;;;9.83;6.30;;;20.00;99.90;;;;;;5117731;28;20452;-75
2022/08/26 01:44:31;;;;;;;9.43;6.20;;;19.90;99.90;;;;;;5117331;28;20452;-70
2022/08/26 01:47:00;;;;;;;12.10;6.43;;;20.00;99.90;;;;;;5116372;28;20480;-75
2022/08/26 01:49:29;;;;;;;9.07;7.33;;;20.00;99.90;;;;;;5116840;28;20410;-75
2022/08/26 01:51:57;;;;;;;8.00;6.57;;;20.00;99.90;;;;;;5099188;28;20505;-70
2022/08/26 01:54:24;;;;;;;6.97;6.23;;;20.00;99.90;;;;;;5117268;28;20761;-70
2022/08/26 01:56:51;;;;;;;7.10;6.40;;;19.90;99.90;;;;;;5116382;28;20418;-75
2022/08/26 01:59:26;;;;;;;8.73;7.37;;;19.90;99.90;;;;;;5116947;28;20438;-70
2022/08/26 02:01:52;;;;;;;8.53;7.00;;;19.90;99.90;;;;;;5117084;28;20414;-70
2022/08/26 02:04:53;;;;;;;13.27;6.43;;;19.90;99.90;;;;;;5116922;28;20495;-70
2022/08/26 02:07:23;;;;;;;7.50;6.50;;;19.90;99.90;;;;;;5115323;28;20406;-75
2022/08/26 02:09:49;;;;;;;9.73;5.67;;;19.90;99.90;;;;;;5116794;28;20408;-75
2022/08/26 02:12:18;;;;;;;10.67;7.17;;;19.90;99.90;;;;;;5117776;28;20403;-75
2022/08/26 02:14:53;;;;;;;13.93;6.83;;;19.90;99.90;;;;;;5117082;28;20391;-75
2022/08/26 02:17:25;;;;;;;9.77;7.63;;;19.80;99.90;;;;;;5115660;28;20406;-75
2022/08/26 02:19:51;;;;;;;8.20;6.50;;;19.90;1.00;;;;;;5116688;28;20414;-76
2022/08/26 02:22:22;;;;;;;10.63;6.67;;;19.90;1.00;;;;;;5098454;28;20509;-75
2022/08/26 02:24:56;;;;;;;8.47;7.10;;;19.90;1.00;;;;;;5116480;28;20482;-75
2022/08/26 02:27:32;;;;;;;9.93;6.77;;;19.90;1.00;;;;;;5114921;28;20402;-70
2022/08/26 02:30:20;;;;;;;6.80;6.20;;;19.90;1.00;;;;;;5116371;28;20429;-75
2022/08/26 02:32:46;;;;;;;7.93;6.20;;;19.90;1.00;;;;;;5098351;28;20410;-70
2022/08/26 02:35:14;;;;;;;5.97;5.30;;;19.90;1.00;;;;;;5097820;28;20414;-70
2022/08/26 02:37:40;;;;;;;7.90;6.70;;;19.90;1.00;;;;;;5115773;28;20504;-75
2022/08/26 02:40:10;;;;;;;13.90;7.90;;;19.90;1.00;;;;;;5116736;28;20467;-75
2022/08/26 02:42:40;;;;;;;15.50;7.20;;;19.80;1.00;;;;;;5116657;27;20407;-75
2022/08/26 02:45:09;;;;;;;8.87;7.80;;;19.90;1.00;;;;;;5115623;28;20461;-69
2022/08/26 02:47:38;;;;;;;8.37;7.33;;;19.90;1.00;;;;;;5114977;28;20426;-75
2022/08/26 02:50:06;;;;;;;8.50;6.60;;;19.90;1.00;;;;;;5116330;28;20468;-75
2022/08/26 02:52:37;;;;;;;11.23;7.03;;;19.90;1.00;;;;;;5116097;28;20486;-75
2022/08/26 02:55:24;;;;;;;6.77;6.10;;;19.90;1.00;;;;;;5116023;28;20432;-69
2022/08/26 02:57:51;;;;;;;14.50;7.57;;;19.80;1.00;;;;;;5114425;28;20438;-74
2022/08/26 03:00:20;;;;;;;9.77;7.17;;;19.80;1.00;;;;;;5115985;28;20410;-70
2022/08/26 03:02:55;;;;;;;11.50;7.07;;;19.80;1.00;;;;;;5115518;28;20512;-70
2022/08/26 03:05:34;;;;;;;13.30;8.33;;;19.80;1.00;;;;;;5115633;28;20457;-75
2022/08/26 03:08:07;;;;;;;16.70;6.80;;;19.90;1.00;;;;;;5114723;28;20426;-75
2022/08/26 03:10:33;;;;;;;8.00;6.80;;;19.90;1.00;;;;;;5116773;28;20409;-71
2022/08/26 03:12:59;;;;;;;11.73;7.50;;;19.80;1.00;;;;;;5115761;28;20431;-70
2022/08/26 03:15:27;;;;;;;13.33;7.20;;;19.80;1.00;;;;;;5115509;28;20434;-74
2022/08/26 03:17:54;;;;;;;12.50;8.00;;;19.80;1.00;;;;;;5114447;28;20199;-76
2022/08/26 03:20:20;;;;;;;13.47;7.80;;;19.80;1.00;;;;;;5115458;28;20448;-70
2022/08/26 03:22:47;;;;;;;17.03;7.03;;;19.80;1.00;;;;;;5114818;28;20406;-69
2022/08/26 03:25:14;;;;;;;12.03;8.70;;;19.80;1.00;;;;;;5115262;28;20450;-70
2022/08/26 03:27:41;;;;;;;8.03;7.03;;;19.80;1.00;;;;;;5114163;28;20495;-76
2022/08/26 03:33:01;;;;;;;10.20;6.20;;;19.80;1.00;;;;;;5115547;28;20406;-75
2022/08/26 03:35:36;;;;;;;12.87;8.27;;;19.70;1.00;;;;;;5114413;28;20883;-69
2022/08/26 03:38:05;;;;;;;10.60;7.50;;;19.70;1.00;;;;;;5113672;28;20839;-70
2022/08/26 03:40:35;;;;;;;10.17;7.33;;;19.70;1.00;;;;;;5115065;28;20448;-75
2022/08/26 03:43:11;;;;;;;9.33;7.63;;;19.70;1.00;;;;;;5115138;28;20409;-69
2022/08/26 03:45:38;;;;;;;13.00;7.23;;;19.70;1.00;;;;;;5114840;28;20823;-75
2022/08/26 03:48:13;;;;;;;7.67;6.70;;;19.70;1.00;;;;;;5113980;28;20410;-69
2022/08/26 03:50:42;;;;;;;13.70;8.00;;;19.60;1.00;;;;;;5114681;28;20431;-75
2022/08/26 03:53:08;;;;;;;9.67;7.50;;;19.60;1.00;;;;;;5115682;28;20937;-70
2022/08/26 03:55:34;;;;;;;14.23;7.27;;;19.60;1.00;;;;;;5114760;28;20418;-74
2022/08/26 03:58:04;;;;;;;11.00;7.47;;;19.60;1.00;;;;;;5113344;28;20189;-70
2022/08/26 04:00:30;;;;;;;9.63;7.63;;;19.60;1.00;;;;;;5114906;28;20394;-70
2022/08/26 04:02:56;;;;;;;8.37;7.00;;;19.60;1.00;;;;;;5114624;28;20387;-70
2022/08/26 04:05:28;;;;;;;14.67;7.00;;;19.60;1.00;;;;;;5114525;28;20442;-75
2022/08/26 04:07:54;;;;;;;12.03;7.90;;;19.50;1.00;;;;;;5113883;28;20411;-69
2022/08/26 04:10:26;;;;;;;11.03;7.23;;;19.50;1.00;;;;;;5114767;28;20941;-70
2022/08/26 04:12:52;;;;;;;13.27;7.73;;;19.50;1.00;;;;;;5114227;28;20422;-70
2022/08/26 04:15:20;;;;;;;13.27;7.00;;;19.40;1.00;;;;;;5114177;28;20744;-75
2022/08/26 04:17:46;;;;;;;9.40;7.03;;;19.40;1.00;;;;;;5113280;28;20509;-76
2022/08/26 04:20:17;;;;;;;7.30;6.60;;;19.40;1.00;;;;;;5114459;28;20394;-71
2022/08/26 04:22:44;;;;;;;8.47;6.83;;;19.40;1.00;;;;;;5114281;28;20399;-75
2022/08/26 04:25:13;;;;;;;8.53;7.60;;;19.30;1.00;;;;;;5114139;28;20450;-69
2022/08/26 04:27:42;;;;;;;10.53;7.80;;;19.30;1.00;;;;;;5114799;28;20476;-70
2022/08/26 04:30:09;;;;;;;9.53;6.87;;;19.30;1.00;;;;;;5113526;28;20410;-70
2022/08/26 04:32:38;;;;;;;15.47;7.73;;;19.40;1.00;;;;;;5114211;28;20411;-70
2022/08/26 04:35:05;;;;;;;14.87;8.43;;;19.30;1.00;;;;;;5114276;28;20878;-75
2022/08/26 04:37:32;;;;;;;14.73;10.53;;;19.30;1.00;;;;;;5113144;28;20418;-75
2022/08/26 04:39:58;;;;;;;13.97;8.83;;;19.40;1.00;;;;;;5096230;28;20855;-70
2022/08/26 04:42:28;;;;;;;13.00;8.63;;;19.40;1.00;;;;;;5095853;28;20418;-70
2022/08/26 04:44:54;;;;;;;9.07;8.17;;;19.50;1.00;;;;;;5096167;28;20546;-75
2022/08/26 04:47:20;;;;;;;13.03;9.17;;;19.50;1.00;;;;;;5112590;28;20423;-70
2022/08/26 04:49:46;;;;;;;9.23;8.33;;;19.50;1.00;;;;;;5114099;28;20161;-75
2022/08/26 04:52:14;;;;;;;13.10;8.53;;;19.60;1.00;;;;;;5095442;28;20403;-75
2022/08/26 04:54:40;;;;;;;11.73;10.60;;;19.60;1.00;;;;;;5114763;28;20252;-74
2022/08/26 04:57:06;;;;;;;14.80;9.40;;;19.60;1.00;;;;;;5112976;28;20437;-75
2022/08/26 04:59:32;;;;;;;18.90;10.40;;;19.50;1.00;;;;;;5114476;28;20426;-75
2022/08/26 05:01:59;;;;;;;14.73;9.80;;;19.60;1.00;;;;;;5113811;28;20192;-70
2022/08/26 05:04:29;;;;;;;23.20;10.77;;;19.60;1.00;;;;;;5094970;28;20454;-70
2022/08/26 05:06:55;;;;;;;18.23;10.73;;;19.70;1.00;;;;;;5112895;28;20398;-74
2022/08/26 05:09:24;;;;;;;23.70;9.70;;;19.70;1.00;;;;;;5113612;28;20944;-70
2022/08/26 05:12:20;;;;;;;12.13;9.87;;;19.80;1.00;;;;;;5113777;28;20953;-70
2022/08/26 05:14:46;;;;;;;16.00;10.40;;;19.80;1.00;;;;;;5113607;28;20407;-75
2022/08/26 05:17:12;;;;;;;14.53;12.73;;;19.80;1.00;;;;;;5094698;28;20476;-70
2022/08/26 05:19:46;;;;;;;13.07;9.13;;;19.80;1.00;;;;;;5095051;28;20238;-75
2022/08/26 05:22:12;;;;;;;12.97;10.73;;;19.80;1.00;;;;;;5113082;28;20175;-75
2022/08/26 05:24:38;;;;;;;20.93;11.93;;;19.80;1.00;;;;;;5095257;28;20442;-70
2022/08/26 05:27:04;;;;;;;14.33;10.50;;;19.80;1.00;;;;;;5094397;28;20420;-75
2022/08/26 05:29:30;;;;;;;23.10;10.10;;;19.80;1.00;;;;;;5113326;28;21007;-71
2022/08/26 05:31:56;;;;;;;13.20;10.33;;;19.80;1.00;;;;;;5113432;28;20390;-70
2022/08/26 05:34:57;;;;;;;13.07;9.73;;;19.80;1.00;;;;;;5095198;28;20601;-75
2022/08/26 05:41:23;;;;;;;12.87;9.93;;;19.90;1.00;;;;;;4998099;28;20407;-77
2022/08/26 05:43:50;;;;;;;16.00;11.20;;;19.90;1.00;;;;;;5113460;28;20441;-73
2022/08/26 05:46:15;;;;;;;16.53;10.87;;;19.90;1.00;;;;;;5112661;28;20394;-77
2022/08/26 05:48:41;;;;;;;22.43;13.60;;;19.90;1.00;;;;;;5095039;28;20500;-73
2022/08/26 05:51:09;;;;;;;13.63;11.93;;;19.90;1.80;;;;;;5113249;28;20211;-77
2022/08/26 05:53:39;;;;;;;21.17;11.80;;;20.00;20.90;;;;;;5094973;28;20411;-76
2022/08/26 05:56:07;;;;;;;16.10;11.60;;;20.10;24.90;;;;;;5094222;28;20407;-72
2022/08/26 05:58:35;;;;;;;13.40;11.73;;;20.20;31.50;;;;;;5096615;28;20476;-75
2022/08/26 06:01:16;;;;;;;17.17;12.20;;;20.20;33.60;;;;;;5098825;28;20410;-76
2022/08/26 06:03:45;;;;;;;14.10;11.57;;;20.30;42.60;;;;;;5098417;28;20460;-76
2022/08/26 06:06:14;;;;;;;22.10;13.30;;;20.30;38.50;;;;;;5097890;28;20433;-76
2022/08/26 06:08:40;;;;;;;16.17;12.17;;;20.30;41.10;;;;;;5098477;28;20423;-75
2022/08/26 06:11:09;;;;;;;14.40;12.40;;;20.40;41.40;;;;;;5098529;28;20497;-75
2022/08/26 06:13:36;;;;;;;16.53;12.70;;;20.40;42.60;;;;;;5098637;28;20445;-72
2022/08/26 06:16:05;;;;;;;25.43;14.60;;;20.40;37.20;;;;;;5115362;28;20411;-76
2022/08/26 06:18:35;;;;;;;14.20;11.90;;;20.50;26.70;;;;;;5116624;28;20433;-72
2022/08/26 06:21:21;;;;;;;14.70;12.70;;;20.50;41.00;;;;;;5116414;28;20483;-77
2022/08/26 06:26:34;;;;;;;17.77;15.00;;;20.60;30.90;;;;;;5115583;28;20393;-73
2022/08/26 06:29:01;;;;;;;17.90;14.13;;;20.60;41.20;;;;;;5116032;28;20470;-73
2022/08/26 06:31:28;;;;;;;21.53;13.20;;;20.70;42.60;;;;;;5116299;28;20403;-73
2022/08/26 06:33:54;;;;;;;23.60;13.07;;;20.70;37.30;;;;;;5097696;28;20911;-72
2022/08/26 06:36:25;;;;;;;20.63;14.47;;;20.80;43.40;;;;;;5115493;28;21289;-73
2022/08/26 06:38:54;;;;;;;21.47;13.30;;;20.90;43.40;;;;;;5098214;28;20970;-73
2022/08/26 06:41:21;;;;;;;19.03;12.90;;;21.00;39.70;;;;;;5097857;28;20410;-73
2022/08/26 06:43:48;;;;;;;18.07;13.97;;;21.00;35.60;;;;;;5097859;28;20977;-70
2022/08/26 06:46:16;;;;;;;17.00;12.60;;;21.00;26.50;;;;;;5115146;28;20394;-70
2022/08/26 06:48:43;;;;;;;16.60;13.67;;;21.00;21.20;;;;;;5097864;28;20454;-70
2022/08/26 06:51:13;;;;;;;16.07;12.70;;;21.10;21.40;;;;;;5097200;28;20924;-71
2022/08/26 06:53:41;;;;;;;21.13;12.87;;;21.20;17.30;;;;;;5097606;28;20460;-70
2022/08/26 06:56:09;;;;;;;25.13;14.10;;;21.20;1.00;;;;;;5096678;28;20411;-70
2022/08/26 06:58:36;;;;;;;15.03;12.40;;;21.30;1.00;;;;;;5115930;28;20419;-70
2022/08/26 07:01:03;;;;;;;17.33;11.77;;;21.40;1.00;;;;;;5097504;28;20407;-75
2022/08/26 07:03:29;;;;;;;16.30;12.80;;;21.50;1.00;;;;;;5097489;28;20505;-70
2022/08/26 07:06:02;;;;;;;18.33;12.70;;;21.50;1.00;;;;;;5115500;28;20403;-75
2022/08/26 07:08:28;;;;;;;15.67;12.10;;;21.60;1.00;;;;;;5115032;28;20419;-75
2022/08/26 07:10:54;;;;;;;18.93;14.23;;;21.50;1.00;;;;;;5114929;28;20759;-75
2022/08/26 07:13:21;;;;;;;13.60;11.20;;;21.40;1.00;;;;;;5115574;28;20628;-74
2022/08/26 07:15:47;;;;;;;24.57;12.83;;;21.30;1.00;;;;;;5097102;28;20165;-75
2022/08/26 07:18:13;;;;;;;15.03;11.67;;;21.40;1.00;;;;;;5114716;28;20421;-70
2022/08/26 07:20:40;;;;;;;15.43;11.70;;;21.40;1.00;;;;;;5115425;28;20394;-71
2022/08/26 07:23:07;;;;;;;17.60;13.00;;;21.40;1.00;;;;;;5114973;28;20383;-71
2022/08/26 07:25:33;;;;;;;18.30;14.63;;;21.40;1.00;;;;;;5096848;28;20447;-75
2022/08/26 07:27:59;;;;;;;15.50;12.10;;;21.40;1.00;;;;;;5114332;28;20446;-70
2022/08/26 07:30:25;;;;;;;20.30;13.50;;;21.40;1.00;;;;;;5115152;28;20450;-70
2022/08/26 07:32:50;;;;;;;15.37;12.47;;;21.50;1.00;;;;;;5115169;28;20197;-70
2022/08/26 07:35:16;;;;;;;14.93;12.90;;;21.60;1.00;;;;;;5096868;28;20823;-71
2022/08/26 07:37:42;;;;;;;17.23;13.23;;;21.70;1.00;;;;;;5114035;28;20664;-70
2022/08/26 07:40:09;;;;;;;16.67;11.63;;;21.90;1.00;;;;;;5096802;28;20199;-70
2022/08/26 07:42:34;;;;;;;16.60;11.83;;;22.00;1.00;;;;;;5096334;28;20197;-70
2022/08/26 07:45:00;;;;;;;18.13;12.87;;;22.20;1.00;;;;;;5096676;28;20540;-73
2022/08/26 07:47:26;;;;;;;14.17;10.27;;;22.40;1.00;;;;;;5095850;28;20590;-74
2022/08/26 07:49:54;;;;;;;14.27;11.80;;;22.40;1.00;;;;;;5096719;28;20625;-76
2022/08/26 07:52:20;;;;;;;13.03;11.27;;;22.60;1.00;;;;;;5114636;28;20161;-72
2022/08/26 07:54:46;;;;;;;14.10;10.80;;;22.60;1.00;;;;;;5096467;28;20409;-73
2022/08/26 07:57:11;;;;;;;16.37;11.20;;;22.60;1.00;;;;;;5095486;28;20176;-76
2022/08/26 07:59:37;;;;;;;15.50;11.20;;;22.80;1.00;;;;;;5095833;28;20189;-75
2022/08/26 08:02:03;;;;;;;16.10;10.83;;;22.90;1.00;;;;;;5114709;28;20601;-73
2022/08/26 08:04:29;;;;;;;13.13;11.73;;;23.00;1.00;;;;;;5096221;28;20196;-77
2022/08/26 08:06:55;;;;;;;17.00;12.93;;;23.00;1.00;;;;;;5095679;28;20411;-76
2022/08/26 08:09:21;;;;;;;15.97;10.60;;;23.10;1.00;;;;;;5114502;28;20575;-73
2022/08/26 08:11:48;;;;;;;26.30;11.43;;;23.10;1.00;;;;;;5114393;28;20436;-74
2022/08/26 08:14:14;;;;;;;16.40;11.40;;;23.10;1.00;;;;;;5096174;28;20449;-73
2022/08/26 08:16:40;;;;;;;13.10;11.80;;;23.20;1.00;;;;;;5094823;28;20449;-77
2022/08/26 08:19:06;;;;;;;20.10;11.50;;;23.30;1.00;;;;;;5096032;28;20422;-77
2022/08/26 08:21:31;;;;;;;19.27;10.70;;;23.40;1.00;;;;;;5114055;28;20165;-77
2022/08/26 08:23:57;;;;;;;16.80;10.40;;;23.50;1.00;;;;;;5095918;28;20246;-73
2022/08/26 08:26:25;;;;;;;12.27;9.97;;;23.60;1.00;;;;;;5095095;28;20529;-77
2022/08/26 08:28:53;;;;;;;12.97;10.50;;;23.60;1.00;;;;;;5114039;28;20195;-72
2022/08/26 08:31:22;;;;;;;14.53;11.17;;;23.60;99.90;;;;;;5095707;28;20764;-73
2022/08/26 08:33:48;;;;;;;11.57;10.43;;;23.60;99.90;;;;;;5113859;28;20967;-77
2022/08/26 08:36:15;;;;;;;30.87;11.57;;;23.70;99.90;;;;;;5094847;28;20419;-77
2022/08/26 08:38:42;;;;;;;16.43;10.57;;;23.80;99.90;;;;;;5095658;28;20610;-76
2022/08/26 08:41:27;;;;;;;17.40;11.00;;;23.90;99.90;;;;;;5095698;28;20407;-76
2022/08/26 08:43:54;;;;;;;14.03;10.30;;;23.90;99.90;;;;;;5113776;28;20492;-73
2022/08/26 08:46:20;;;;;;;14.90;9.90;;;24.10;99.90;;;;;;5094610;28;20395;-73
2022/08/26 08:48:51;;;;;;;14.67;10.50;;;24.20;99.90;;;;;;5113559;28;20418;-73
2022/08/26 08:51:30;;;;;;;12.27;9.63;;;24.40;99.90;;;;;;5113870;28;20421;-73
2022/08/26 08:53:56;;;;;;;13.10;10.37;;;24.50;99.90;;;;;;5095774;28;20493;-73
2022/08/26 08:56:25;;;;;;;10.93;9.27;;;24.80;99.90;;;;;;5094486;28;20415;-70
2022/08/26 08:59:13;;;;;;;13.97;10.23;;;25.00;99.90;;;;;;5095401;28;20869;-76
2022/08/26 09:02:04;;;;;;;9.67;8.53;;;25.20;99.90;;;;;;5113891;28;20865;-75
2022/08/26 09:04:49;;;;;;;13.47;8.60;;;25.40;99.90;;;;;;5095483;28;20529;-76
2022/08/26 09:08:02;;;;;;;14.90;9.23;;;25.50;99.90;;;;;;5112393;28;20880;-71
2022/08/26 09:10:35;;;;;;;17.80;9.03;;;25.60;99.90;;;;;;5051325;28;20415;-76
2022/08/26 09:13:08;;;;;;;10.27;8.40;;;25.70;99.90;;;;;;5113687;28;20395;-71
2022/08/26 09:15:49;;;;;;;14.83;8.13;;;25.90;99.90;;;;;;5113603;28;20793;-71
2022/08/26 09:18:24;;;;;;;15.07;7.93;;;26.20;99.90;;;;;;5094477;28;20427;-74
2022/08/26 09:20:59;;;;;;;11.47;7.63;;;26.30;99.90;;;;;;5113596;28;20408;-76
2022/08/26 09:23:25;;;;;;;14.83;7.27;;;26.30;98.60;;;;;;5113470;28;20402;-76
2022/08/26 09:25:55;;;;;;;8.57;7.77;;;26.20;98.20;;;;;;5113108;28;20909;-71
2022/08/26 09:28:23;;;;;;;8.53;7.70;;;26.30;98.00;;;;;;5094340;28;20418;-75
2022/08/26 09:31:03;;;;;;;17.70;7.97;;;26.30;97.80;;;;;;5112981;28;20415;-72
2022/08/26 09:33:30;;;;;;;14.13;8.30;;;26.20;94.30;;;;;;5097590;28;20398;-71
2022/08/26 09:36:13;;;;;;;10.10;8.63;;;26.30;87.00;;;;;;5117182;28;20451;-76
2022/08/26 09:38:40;;;;;;;14.03;9.40;;;26.30;72.20;;;;;;5099016;28;20505;-75
2022/08/26 09:41:26;;;;;;;13.90;8.00;;;26.40;65.70;;;;;;5117295;28;20395;-71
2022/08/26 09:44:19;;;;;;;17.97;7.70;;;26.30;62.30;;;;;;5117340;28;20453;-76
2022/08/26 09:46:53;;;;;;;16.13;8.60;;;26.30;35.60;;;;;;5111878;28;20441;-71
2022/08/26 09:49:35;;;;;;;17.37;8.57;;;26.10;33.90;;;;;;5117265;28;20486;-71
2022/08/26 09:52:09;;;;;;;13.97;8.23;;;26.00;34.90;;;;;;5099046;28;20402;-70
2022/08/26 09:54:36;;;;;;;12.30;8.90;;;26.10;47.30;;;;;;5117240;28;20891;-76
2022/08/26 09:57:11;;;;;;;13.93;8.63;;;26.40;61.60;;;;;;5097825;28;20497;-74
2022/08/26 09:59:37;;;;;;;14.20;8.60;;;27.10;42.60;;;;;;5117069;28;20437;-71
2022/08/26 10:02:25;;;;;;;11.50;7.10;;;27.60;21.40;;;;;;5117252;28;20399;-70
2022/08/26 10:04:53;;;;;;;11.57;7.43;;;28.30;4.10;;;;;;5098169;28;20193;-70
2022/08/26 10:07:44;;;;;;;9.30;7.20;;;28.80;7.90;;;;;;5115823;28;20410;-70
2022/08/26 10:10:34;;;;;;;10.33;8.77;;;29.30;1.00;;;;;;5116819;28;20468;-71
2022/08/26 10:13:09;;;;;;;19.63;8.37;;;29.70;1.00;;;;;;5098712;28;20934;-71
2022/08/26 10:15:58;;;;;;;11.37;7.10;;;30.10;1.00;;;;;;5098548;28;20406;-75
2022/08/26 10:18:30;;;;;;;9.20;6.20;;;30.30;1.00;;;;;;5116089;28;20409;-75
2022/08/26 10:21:25;;;;;;;13.93;7.60;;;30.10;1.00;;;;;;5098274;28;20424;-76
2022/08/26 10:23:54;;;;;;;14.60;7.20;;;30.20;1.00;;;;;;5113496;28;20462;-71
2022/08/26 10:26:36;;;;;;;9.20;6.37;;;30.10;1.00;;;;;;5115640;28;21231;-71
2022/08/26 10:29:11;;;;;;;11.03;6.90;;;30.20;1.00;;;;;;5116349;28;20483;-76
2022/08/26 10:31:43;;;;;;;13.80;7.70;;;30.40;1.00;;;;;;5098542;28;20405;-71
2022/08/26 10:34:10;;;;;;;11.17;6.93;;;30.10;1.00;;;;;;5116374;28;20406;-76
2022/08/26 10:36:48;;;;;;;20.80;7.70;;;30.40;1.00;;;;;;5097476;28;20442;-71
2022/08/26 10:39:39;;;;;;;10.93;5.97;;;30.60;1.00;;;;;;5116111;28;20438;-72
2022/08/26 10:42:18;;;;;;;11.87;6.80;;;30.80;1.00;;;;;;5098199;28;20430;-76
2022/08/26 10:44:46;;;;;;;7.30;5.83;;;30.90;1.00;;;;;;5097604;28;20997;-72
2022/08/26 10:47:30;;;;;;;10.37;7.13;;;30.90;1.00;;;;;;5115121;28;20482;-75
2022/08/26 10:49:57;;;;;;;13.50;6.80;;;30.70;1.00;;;;;;5116273;28;20747;-71
2022/08/26 10:52:38;;;;;;;15.83;7.20;;;30.90;1.00;;;;;;5115969;28;20399;-71
2022/08/26 10:55:20;;;;;;;15.83;6.13;;;31.20;1.00;;;;;;5115953;28;20963;-72
2022/08/26 10:57:56;;;;;;;15.33;7.33;;;31.60;1.00;;;;;;5115081;28;20822;-71
2022/08/26 11:03:35;;;;;;;11.60;5.93;;;31.30;1.00;;;;;;5115859;28;20413;-71
2022/08/26 11:06:26;;;;;;;11.50;6.00;;;31.50;1.00;;;;;;5115159;28;20398;-73
2022/08/26 11:09:00;;;;;;;14.73;8.03;;;31.70;1.00;;;;;;5098055;28;20423;-71
2022/08/26 11:11:38;;;;;;;13.50;6.50;;;31.30;1.00;;;;;;5115736;28;20813;-76
2022/08/26 11:14:19;;;;;;;9.47;5.80;;;30.70;1.00;;;;;;5097606;28;20411;-75
2022/08/26 11:16:48;;;;;;;7.90;7.20;;;30.30;1.00;;;;;;5114463;28;20464;-75
2022/08/26 11:19:29;;;;;;;10.10;6.23;;;30.00;1.00;;;;;;5115150;28;20438;-75
2022/08/26 11:22:31;;;;;;;8.40;6.57;;;29.90;1.00;;;;;;5115519;28;20394;-76
2022/08/26 11:24:57;;;;;;;9.73;6.50;;;30.10;1.00;;;;;;5101797;28;20536;-72
2022/08/26 11:27:24;;;;;;;14.30;6.30;;;30.10;1.00;;;;;;5114240;28;20815;-72
2022/08/26 11:30:11;;;;;;;8.70;5.77;;;29.80;1.00;;;;;;5115209;28;20518;-76
2022/08/26 11:32:37;;;;;;;13.77;6.50;;;29.70;1.00;;;;;;5115376;28;20431;-76
2022/08/26 11:35:18;;;;;;;12.20;6.40;;;30.30;1.00;;;;;;5114976;28;20460;-77
2022/08/26 11:37:55;;;;;;;6.73;5.93;;;30.80;1.00;;;;;;5113923;28;20425;-72
2022/08/26 11:40:29;;;;;;;6.60;5.53;;;30.50;1.00;;;;;;5115542;28;20988;-76
2022/08/26 11:43:04;;;;;;;8.80;6.60;;;30.70;1.00;;;;;;5115432;28;20411;-77
2022/08/26 11:45:33;;;;;;;6.93;6.20;;;31.00;1.00;;;;;;5114801;28;20893;-76
2022/08/26 11:48:20;;;;;;;13.03;7.13;;;30.90;1.00;;;;;;5113994;28;20421;-77
2022/08/26 11:51:01;;;;;;;9.03;7.97;;;30.00;1.00;;;;;;5114901;28;20422;-72
2022/08/26 11:53:29;;;;;;;9.27;7.43;;;29.00;1.00;;;;;;5113101;28;20415;-73
2022/08/26 11:55:57;;;;;;;10.63;7.33;;;28.50;1.00;;;;;;5113839;28;20467;-76
2022/08/26 11:58:26;;;;;;;11.93;8.20;;;28.20;1.00;;;;;;5114233;28;20906;-72
2022/08/26 12:00:56;;;;;;;11.03;7.03;;;28.80;1.00;;;;;;5114806;28;20456;-74
2022/08/26 12:03:37;;;;;;;9.00;6.80;;;29.40;1.00;;;;;;5114784;28;20402;-77
2022/08/26 12:06:13;;;;;;;8.97;6.90;;;30.20;1.00;;;;;;5113831;28;20915;-77
2022/08/26 12:08:42;;;;;;;15.50;7.63;;;30.30;1.00;;;;;;5114643;28;20425;-73
2022/08/26 12:11:23;;;;;;;10.77;6.60;;;30.70;1.00;;;;;;5114189;28;20883;-74
2022/08/26 12:13:59;;;;;;;7.63;6.60;;;30.70;1.00;;;;;;5114465;28;20444;-76
2022/08/26 12:16:30;;;;;;;12.50;6.97;;;30.20;1.00;;;;;;5113666;28;20399;-76
2022/08/26 12:18:56;;;;;;;7.57;6.87;;;29.60;1.00;;;;;;5114346;28;20450;-76
2022/08/26 12:21:28;;;;;;;10.27;8.10;;;29.00;1.00;;;;;;5114327;28;20418;-73
2022/08/26 12:23:56;;;;;;;23.13;10.50;;;28.30;1.00;;;;;;5114239;28;20180;-75
2022/08/26 12:26:31;;;;;;;14.20;10.17;;;28.00;1.00;;;;;;5095103;28;20849;-75
2022/08/26 12:29:07;;;;;;;12.30;8.10;;;28.20;1.00;;;;;;5113703;28;20422;-74
2022/08/26 12:31:36;;;;;;;9.23;8.30;;;28.50;1.00;;;;;;5096376;28;20406;-74
2022/08/26 12:34:05;;;;;;;15.03;8.83;;;28.80;1.00;;;;;;5097277;28;20417;-74
2022/08/26 12:36:39;;;;;;;15.50;8.60;;;29.00;1.00;;;;;;5114208;28;20409;-74
2022/08/26 12:39:10;;;;;;;13.00;8.77;;;29.10;1.00;;;;;;5095793;28;20856;-74
2022/08/26 12:41:46;;;;;;;12.90;9.40;;;29.40;1.00;;;;;;5113930;28;20406;-74
2022/08/26 12:44:31;;;;;;;13.03;8.57;;;29.40;1.00;;;;;;5113676;28;21013;-76
2022/08/26 12:47:10;;;;;;;16.00;9.33;;;28.80;1.00;;;;;;5112845;28;20401;-73
2022/08/26 12:49:38;;;;;;;14.33;9.40;;;28.00;1.00;;;;;;5113907;28;20399;-73
2022/08/26 12:52:06;;;;;;;12.83;7.70;;;27.60;1.00;;;;;;5113682;28;20462;-74
2022/08/26 12:57:24;;;;;;;10.63;8.40;;;27.10;1.00;;;;;;5112929;28;20425;-74
2022/08/26 12:59:49;;;;;;;12.40;8.57;;;26.80;1.00;;;;;;5113808;28;20936;-76
2022/08/26 13:02:36;;;;;;;15.80;8.60;;;26.70;1.00;;;;;;5095863;28;20402;-73
2022/08/26 13:05:02;;;;;;;12.53;8.30;;;26.70;1.00;;;;;;5113288;28;20207;-73
2022/08/26 13:07:28;;;;;;;10.57;7.20;;;26.50;1.00;;;;;;5113551;28;20398;-76
2022/08/26 13:09:56;;;;;;;11.03;8.20;;;26.40;1.00;;;;;;5118130;28;20387;-72
2022/08/26 13:12:33;;;;;;;12.37;7.90;;;26.40;1.00;;;;;;5118053;28;20549;-72
2022/08/26 13:15:01;;;;;;;17.17;8.10;;;26.10;1.00;;;;;;5117819;28;20504;-77
2022/08/26 13:17:28;;;;;;;14.33;8.87;;;25.90;1.00;;;;;;5117080;28;20918;-77
2022/08/26 13:19:54;;;;;;;17.20;10.53;;;25.70;1.00;;;;;;5117973;28;20386;-76
2022/08/26 13:22:23;;;;;;;18.83;10.13;;;25.70;1.00;;;;;;5117924;28;20484;-76